Time;durP1;ratioP1;P1;durP2;ratioP2;P2;SDS_P1;SDS_P2;PMS_P1;PMS_P2;Temp;Humidity;BMP_temperature;BMP_pressure;BME280_temperature;BME280_humidity;BME280_pressure;Samples;Min_cycle;Max_cycle;Signal;HPM_P1;HPM_P2
2023/12/21 00:01:13;;;;;;;2.57;1.97;;;16.30;69.20;17.30;99973.00;;;;5067000;28;20206;-44
2023/12/21 00:03:39;;;;;;;2.63;1.77;;;16.30;69.20;17.40;99980.00;;;;5063384;28;20174;-49
2023/12/21 00:06:05;;;;;;;2.17;1.90;;;16.30;69.10;17.30;99977.00;;;;5068583;28;20715;-44
2023/12/21 00:08:31;;;;;;;2.53;1.90;;;16.30;69.20;17.30;99968.00;;;;5066629;28;20194;-43
2023/12/21 00:10:58;;;;;;;2.57;1.70;;;16.30;69.20;17.30;99972.00;;;;5066729;28;20210;-44
2023/12/21 00:13:26;;;;;;;3.40;1.90;;;16.30;69.20;17.30;99963.00;;;;5065652;28;20197;-44
2023/12/21 00:15:53;;;;;;;2.80;1.90;;;16.30;69.20;17.30;99951.00;;;;5067600;28;20732;-44
2023/12/21 00:18:18;;;;;;;2.57;1.80;;;16.30;69.40;17.30;99958.00;;;;5066335;28;20201;-44
2023/12/21 00:20:44;;;;;;;2.33;1.97;;;16.20;69.30;17.30;99961.00;;;;5067329;28;20598;-43
2023/12/21 00:23:10;;;;;;;2.83;1.70;;;16.20;69.30;17.30;99965.00;;;;5067470;28;20864;-44
2023/12/21 00:25:36;;;;;;;2.37;1.70;;;16.20;69.30;17.30;99961.00;;;;5066037;28;20614;-44
2023/12/21 00:28:01;;;;;;;2.13;1.70;;;16.20;69.40;17.30;99949.00;;;;5067716;28;20710;-44
2023/12/21 00:30:27;;;;;;;2.00;1.70;;;16.20;69.40;17.30;99957.00;;;;5065404;28;20653;-44
2023/12/21 00:32:53;;;;;;;2.03;1.80;;;16.20;69.40;17.30;99960.00;;;;5064989;28;20185;-44
2023/12/21 00:35:19;;;;;;;2.13;1.60;;;16.10;69.40;17.30;99952.00;;;;5063776;28;20183;-44
2023/12/21 00:37:45;;;;;;;2.33;1.70;;;16.10;69.60;17.20;99942.00;;;;5066880;28;20683;-43
2023/12/21 00:40:11;;;;;;;2.10;1.80;;;16.10;69.70;17.20;99946.00;;;;5066998;28;20181;-44
2023/12/21 00:42:38;;;;;;;1.80;1.70;;;16.10;69.80;17.20;99942.00;;;;5065212;28;20206;-45
2023/12/21 00:45:07;;;;;;;2.23;1.60;;;16.00;69.80;17.20;99943.00;;;;5066916;28;20178;-44
2023/12/21 00:47:33;;;;;;;1.53;1.43;;;16.00;69.90;17.20;99947.00;;;;5063843;28;20207;-47
2023/12/21 00:49:59;;;;;;;1.70;1.60;;;16.00;69.80;17.20;99933.00;;;;5067141;28;20201;-49
2023/12/21 00:52:25;;;;;;;1.60;1.50;;;16.00;70.00;17.20;99929.00;;;;5064918;28;20690;-44
2023/12/21 00:54:50;;;;;;;1.60;1.50;;;16.00;70.00;17.10;99916.00;;;;5067146;28;20586;-44
2023/12/21 00:57:16;;;;;;;1.83;1.60;;;15.90;69.90;17.10;99918.00;;;;5066265;28;20229;-44
2023/12/21 00:59:42;;;;;;;1.70;1.60;;;16.00;69.80;17.10;99911.00;;;;5065991;28;20726;-44
2023/12/21 01:02:08;;;;;;;2.20;1.67;;;16.00;69.60;17.10;99906.00;;;;5066541;28;20281;-46
2023/12/21 01:04:33;;;;;;;1.73;1.50;;;16.00;69.70;17.10;99914.00;;;;5061835;28;20245;-43
2023/12/21 01:07:00;;;;;;;1.70;1.60;;;15.90;70.20;17.10;99906.00;;;;5066980;28;20191;-44
2023/12/21 01:09:26;;;;;;;2.63;1.70;;;15.90;70.30;17.10;99905.00;;;;5064046;28;20260;-47
2023/12/21 01:11:52;;;;;;;1.77;1.60;;;15.90;70.20;17.10;99908.00;;;;5068584;28;20190;-44
2023/12/21 01:14:18;;;;;;;1.50;1.40;;;16.00;70.10;17.10;99900.00;;;;5064368;28;20228;-44
2023/12/21 01:16:43;;;;;;;2.03;1.57;;;15.90;69.80;17.10;99900.00;;;;5065378;28;20174;-44
2023/12/21 01:19:09;;;;;;;2.27;1.60;;;16.00;70.00;17.10;99888.00;;;;5065519;28;20195;-44
2023/12/21 01:21:35;;;;;;;1.57;1.47;;;16.00;69.90;17.10;99896.00;;;;5063865;28;20702;-44
2023/12/21 01:24:00;;;;;;;1.67;1.53;;;16.00;69.90;17.10;99885.00;;;;5065698;28;20170;-44
2023/12/21 01:26:26;;;;;;;1.83;1.50;;;16.00;70.00;17.00;99879.00;;;;5063709;28;20253;-44
2023/12/21 01:28:52;;;;;;;1.83;1.40;;;16.00;70.00;17.10;99877.00;;;;5065508;28;20229;-44
2023/12/21 01:31:18;;;;;;;1.60;1.50;;;16.00;69.90;17.10;99880.00;;;;5064799;28;20578;-44
2023/12/21 01:33:44;;;;;;;1.97;1.60;;;16.00;69.90;17.00;99879.00;;;;5060491;28;20210;-44
2023/12/21 01:36:10;;;;;;;1.60;1.43;;;16.00;69.90;17.00;99870.00;;;;5065579;28;20209;-44
2023/12/21 01:38:35;;;;;;;2.00;1.60;;;15.90;69.70;17.00;99858.00;;;;5067394;28;20349;-47
2023/12/21 01:41:01;;;;;;;1.97;1.50;;;15.90;69.80;17.00;99854.00;;;;5073486;28;20211;-45
2023/12/21 01:43:27;;;;;;;1.63;1.50;;;15.90;69.80;17.00;99847.00;;;;5066191;28;20266;-45
2023/12/21 01:45:58;;;;;;;1.70;1.53;;;15.90;69.80;17.00;99826.00;;;;5065314;28;20182;-44
2023/12/21 01:48:23;;;;;;;2.30;1.60;;;15.90;70.00;17.00;99808.00;;;;5062159;28;20211;-44
2023/12/21 01:50:50;;;;;;;1.93;1.50;;;15.90;70.70;17.00;99827.00;;;;5065503;28;20261;-44
2023/12/21 01:53:15;;;;;;;2.30;1.50;;;15.90;70.60;17.00;99808.00;;;;5063588;28;20257;-44
2023/12/21 01:55:41;;;;;;;2.90;1.70;;;15.80;70.60;17.00;99746.00;;;;5064227;28;20692;-44
2023/12/21 01:58:07;;;;;;;2.47;1.57;;;15.90;70.60;17.00;99791.00;;;;5065523;28;20190;-44
2023/12/21 02:00:33;;;;;;;1.77;1.63;;;15.90;70.30;17.00;99807.00;;;;5045452;28;20177;-44
2023/12/21 02:02:58;;;;;;;3.33;1.77;;;15.90;70.30;17.00;99806.00;;;;5060856;28;20210;-44
2023/12/21 02:05:24;;;;;;;2.10;1.50;;;15.90;70.30;17.00;99798.00;;;;5045202;28;20667;-44
2023/12/21 02:07:50;;;;;;;1.40;1.30;;;15.90;70.30;17.00;99795.00;;;;5064961;28;20183;-44
2023/12/21 02:10:16;;;;;;;1.63;1.53;;;15.90;70.30;17.00;99794.00;;;;5064051;28;20559;-44
2023/12/21 02:12:41;;;;;;;2.00;1.43;;;15.90;70.30;16.90;99805.00;;;;5063911;28;20183;-44
2023/12/21 02:15:08;;;;;;;2.47;1.60;;;15.80;70.20;16.90;99789.00;;;;5064739;28;20250;-44
2023/12/21 02:17:33;;;;;;;1.77;1.57;;;15.80;70.20;16.90;99778.00;;;;5062988;28;20182;-44
2023/12/21 02:19:59;;;;;;;1.10;1.00;;;15.80;70.30;16.70;99790.00;;;;5047130;28;20206;-45
2023/12/21 02:22:26;;;;;;;1.93;1.73;;;15.80;71.00;16.90;99764.00;;;;5061237;28;20202;-45
2023/12/21 02:24:52;;;;;;;2.27;1.30;;;15.80;70.30;16.90;99788.00;;;;5047731;28;20754;-45
2023/12/21 02:27:18;;;;;;;2.17;1.60;;;15.80;70.20;16.90;99786.00;;;;5063284;28;20182;-46
2023/12/21 02:29:43;;;;;;;1.50;1.40;;;15.80;70.20;16.90;99786.00;;;;5064328;28;20189;-45
2023/12/21 02:32:09;;;;;;;2.27;1.57;;;15.80;70.30;16.90;99775.00;;;;5064883;28;20201;-45
2023/12/21 02:34:35;;;;;;;1.43;1.33;;;15.80;70.20;16.90;99775.00;;;;5056187;28;20202;-45
2023/12/21 02:37:00;;;;;;;2.20;1.40;;;15.80;70.20;16.90;99764.00;;;;5064891;28;20182;-45
2023/12/21 02:39:26;;;;;;;1.80;1.47;;;15.80;70.30;16.90;99779.00;;;;5062606;28;20258;-44
2023/12/21 02:41:53;;;;;;;1.80;1.33;;;15.80;70.30;16.90;99777.00;;;;5064550;28;20207;-44
2023/12/21 02:44:18;;;;;;;1.50;1.40;;;15.80;70.20;16.90;99785.00;;;;5062165;28;20312;-44
2023/12/21 02:46:44;;;;;;;1.47;1.37;;;15.70;70.10;16.90;99766.00;;;;5064137;28;20713;-44
2023/12/21 02:49:10;;;;;;;1.47;1.37;;;15.70;70.10;16.80;99759.00;;;;5064218;28;20209;-44
2023/12/21 02:51:36;;;;;;;1.90;1.40;;;15.70;70.10;16.80;99762.00;;;;5061546;28;20247;-44
2023/12/21 02:54:01;;;;;;;1.30;1.20;;;15.70;70.30;16.80;99748.00;;;;5064416;28;20178;-45
2023/12/21 02:56:27;;;;;;;1.60;1.50;;;15.70;70.30;16.80;99758.00;;;;5060863;28;20569;-44
2023/12/21 02:58:53;;;;;;;1.40;1.30;;;15.70;70.30;16.80;99753.00;;;;5065110;28;20202;-45
2023/12/21 03:01:19;;;;;;;1.73;1.20;;;15.70;70.20;16.80;99745.00;;;;5063132;28;20225;-44
2023/12/21 03:03:44;;;;;;;1.50;1.40;;;15.70;70.10;16.80;99724.00;;;;5060358;28;20256;-45
2023/12/21 03:06:10;;;;;;;1.40;1.30;;;15.70;70.20;16.80;99716.00;;;;5071070;28;20173;-45
2023/12/21 03:08:36;;;;;;;1.83;1.30;;;15.70;70.30;16.80;99722.00;;;;5059035;28;20560;-47
2023/12/21 03:11:02;;;;;;;1.20;1.20;;;15.70;70.30;16.80;99714.00;;;;5069479;28;20183;-45
2023/12/21 03:13:27;;;;;;;1.33;1.23;;;15.60;70.20;16.80;99712.00;;;;5060978;28;20174;-45
2023/12/21 03:15:53;;;;;;;1.50;1.30;;;15.60;70.20;16.80;99702.00;;;;5070993;28;20173;-44
2023/12/21 03:18:19;;;;;;;1.67;1.30;;;15.60;70.30;16.80;99716.00;;;;5069947;28;20799;-45
2023/12/21 03:20:45;;;;;;;1.70;1.60;;;15.60;70.40;16.80;99704.00;;;;5070712;28;20177;-45
2023/12/21 03:23:10;;;;;;;1.23;1.20;;;15.70;70.30;16.70;99710.00;;;;5070842;28;20173;-45
2023/12/21 03:25:36;;;;;;;1.70;1.33;;;15.60;70.30;16.50;99696.00;;;;5069352;28;20174;-44
2023/12/21 03:28:05;;;;;;;1.40;1.30;;;15.70;70.30;16.80;99704.00;;;;5071182;28;20197;-45
2023/12/21 03:30:31;;;;;;;1.90;1.67;;;15.60;70.30;16.80;99695.00;;;;5069420;28;20205;-45
2023/12/21 03:32:57;;;;;;;1.60;1.50;;;15.60;70.30;16.70;99689.00;;;;5067850;28;20178;-45
2023/12/21 03:35:22;;;;;;;1.40;1.30;;;15.60;70.40;16.70;99674.00;;;;5082728;28;20656;-45
2023/12/21 03:37:48;;;;;;;1.60;1.50;;;15.60;70.30;16.70;99668.00;;;;5058021;28;20178;-44
2023/12/21 03:40:14;;;;;;;1.30;1.20;;;15.60;70.40;16.70;99660.00;;;;5070177;28;20181;-45
2023/12/21 03:42:40;;;;;;;1.50;1.20;;;15.60;70.40;16.70;99665.00;;;;5069711;28;20195;-44
2023/12/21 03:45:06;;;;;;;1.40;1.30;;;15.60;70.50;16.70;99640.00;;;;5070729;28;20780;-44
2023/12/21 03:47:32;;;;;;;1.60;1.50;;;15.60;70.50;16.70;99635.00;;;;5070716;28;20168;-44
2023/12/21 03:49:57;;;;;;;1.50;1.40;;;15.60;70.40;16.70;99614.00;;;;5070742;28;20240;-44
2023/12/21 03:52:23;;;;;;;0.83;0.83;;;15.60;70.40;16.70;99607.00;;;;5073808;28;20181;-44
2023/12/21 03:54:49;;;;;;;0.80;0.80;;;15.60;70.40;16.70;99603.00;;;;5076188;28;20220;-44
2023/12/21 03:57:14;;;;;;;1.30;1.20;;;15.60;70.40;16.70;99613.00;;;;5075377;28;20181;-44
2023/12/21 03:59:41;;;;;;;1.20;1.10;;;15.60;70.40;16.70;99601.00;;;;5069808;28;20190;-44
2023/12/21 04:02:07;;;;;;;3.00;1.27;;;15.50;70.50;16.70;99600.00;;;;5071549;28;20573;-44
2023/12/21 04:04:33;;;;;;;1.30;1.20;;;15.50;70.40;16.70;99607.00;;;;5067264;28;20257;-44
2023/12/21 04:06:59;;;;;;;1.40;1.30;;;15.50;70.40;16.70;99611.00;;;;5071413;28;20173;-45
2023/12/21 04:09:26;;;;;;;1.50;1.13;;;15.60;70.50;16.70;99600.00;;;;5065053;28;20193;-45
2023/12/21 04:11:51;;;;;;;1.23;1.20;;;15.60;70.50;16.60;99592.00;;;;5071704;28;20232;-44
2023/12/21 04:14:17;;;;;;;1.23;1.20;;;15.50;70.40;16.60;99594.00;;;;5070188;28;20182;-44
2023/12/21 04:16:43;;;;;;;1.30;1.20;;;15.60;70.40;16.60;99595.00;;;;5067262;28;20177;-44
2023/12/21 04:19:09;;;;;;;1.10;1.10;;;15.50;70.30;16.60;99575.00;;;;5068279;28;20202;-44
2023/12/21 04:21:34;;;;;;;1.60;1.50;;;15.50;70.30;16.60;99568.00;;;;5066387;28;20594;-44
2023/12/21 04:24:01;;;;;;;1.23;1.17;;;15.50;70.30;16.60;99576.00;;;;5068236;28;20173;-44
2023/12/21 04:26:26;;;;;;;1.83;1.20;;;15.50;70.40;16.60;99563.00;;;;5066406;28;20553;-44
2023/12/21 04:28:52;;;;;;;1.30;1.20;;;15.50;70.30;16.60;99550.00;;;;5068409;28;20197;-44
2023/12/21 04:31:19;;;;;;;1.80;1.43;;;15.50;70.50;16.60;99554.00;;;;5059174;28;20197;-44
2023/12/21 04:33:46;;;;;;;3.10;1.20;;;15.50;70.50;16.60;99569.00;;;;5062482;28;20170;-43
2023/12/21 04:36:12;;;;;;;1.57;1.33;;;15.50;70.80;16.60;99568.00;;;;5067797;28;20201;-44
2023/12/21 04:38:38;;;;;;;1.33;1.23;;;15.50;70.40;16.60;99551.00;;;;5067232;28;20197;-44
2023/12/21 04:41:04;;;;;;;1.30;1.20;;;15.50;70.30;16.60;99544.00;;;;5069323;28;20763;-44
2023/12/21 04:43:29;;;;;;;1.37;1.27;;;15.50;70.40;16.60;99535.00;;;;5067235;28;20178;-44
2023/12/21 04:45:55;;;;;;;1.40;1.30;;;15.50;70.30;16.60;99541.00;;;;5067693;28;20174;-44
2023/12/21 04:48:21;;;;;;;1.30;1.20;;;15.50;71.20;16.60;99536.00;;;;5066310;28;20217;-44
2023/12/21 04:50:47;;;;;;;1.73;1.50;;;15.50;70.70;16.60;99523.00;;;;5067596;28;20517;-44
2023/12/21 04:53:13;;;;;;;3.40;1.27;;;15.50;70.70;16.60;99529.00;;;;5067152;28;20174;-44
2023/12/21 04:55:38;;;;;;;2.90;1.57;;;15.50;70.90;16.60;99516.00;;;;5066502;28;20228;-44
2023/12/21 04:58:04;;;;;;;1.40;1.30;;;15.50;70.90;16.60;99507.00;;;;5067718;28;20243;-43
2023/12/21 05:00:30;;;;;;;1.53;1.40;;;15.50;71.00;16.60;99513.00;;;;5064739;28;20231;-44
2023/12/21 05:02:56;;;;;;;2.17;1.50;;;15.50;71.00;16.60;99511.00;;;;5064901;28;20209;-44
2023/12/21 05:05:21;;;;;;;1.27;1.17;;;15.50;71.00;16.60;99517.00;;;;5065653;28;20177;-44
2023/12/21 05:07:48;;;;;;;3.87;1.40;;;15.50;71.00;16.60;99504.00;;;;5067099;28;20176;-44
2023/12/21 05:10:13;;;;;;;1.30;1.20;;;15.50;70.90;16.50;99490.00;;;;5067134;28;20789;-44
2023/12/21 05:12:39;;;;;;;1.50;1.30;;;15.50;70.90;16.50;99477.00;;;;5066096;28;20182;-45
2023/12/21 05:15:06;;;;;;;1.83;1.40;;;15.50;70.90;16.50;99468.00;;;;5067208;28;20177;-44
2023/12/21 05:17:32;;;;;;;1.63;1.40;;;15.50;70.90;16.50;99471.00;;;;5065637;28;20273;-44
2023/12/21 05:19:57;;;;;;;1.50;1.30;;;15.50;70.70;16.50;99478.00;;;;5067224;28;20272;-44
2023/12/21 05:22:23;;;;;;;1.30;1.20;;;15.50;70.80;16.50;99466.00;;;;5054406;28;20251;-44
2023/12/21 05:24:49;;;;;;;1.23;1.23;;;15.50;70.70;16.50;99446.00;;;;5065957;28;20170;-44
2023/12/21 05:27:15;;;;;;;2.17;1.20;;;15.50;70.70;16.50;99449.00;;;;5066237;28;20174;-44
2023/12/21 05:29:42;;;;;;;1.47;1.30;;;15.50;70.90;16.50;99452.00;;;;5061732;28;20225;-44
2023/12/21 05:32:07;;;;;;;1.63;1.40;;;15.40;70.80;16.50;99444.00;;;;5065844;28;20174;-44
2023/12/21 05:34:33;;;;;;;1.93;1.67;;;15.40;70.90;16.50;99455.00;;;;5060049;28;20185;-44
2023/12/21 05:36:59;;;;;;;3.47;1.50;;;15.50;71.00;16.50;99443.00;;;;5066545;28;20178;-43
2023/12/21 05:39:25;;;;;;;2.40;1.60;;;15.40;71.00;16.50;99428.00;;;;5064751;28;20198;-44
2023/12/21 05:41:51;;;;;;;3.63;1.60;;;15.40;71.10;16.50;99419.00;;;;5066671;28;20201;-45
2023/12/21 05:44:17;;;;;;;2.80;1.37;;;15.40;71.40;16.50;99427.00;;;;5065378;28;20238;-45
2023/12/21 05:46:43;;;;;;;3.37;1.60;;;15.40;72.60;16.40;99412.00;;;;5065827;28;20663;-47
2023/12/21 05:49:09;;;;;;;2.60;1.60;;;15.40;72.00;16.50;99415.00;;;;5065778;28;20263;-44
2023/12/21 05:51:35;;;;;;;3.13;1.70;;;15.40;71.90;16.20;99418.00;;;;5064285;28;20206;-44
2023/12/21 05:54:00;;;;;;;5.07;1.70;;;15.40;72.20;16.40;99420.00;;;;5066191;28;20279;-43
2023/12/21 05:56:27;;;;;;;8.13;2.10;;;15.40;72.30;16.40;99413.00;;;;5064562;28;20616;-44
2023/12/21 05:58:53;;;;;;;7.30;2.30;;;15.40;72.40;16.40;99405.00;;;;5065539;28;20205;-43
2023/12/21 06:01:19;;;;;;;11.83;2.43;;;15.40;72.70;16.40;99396.00;;;;5065018;28;20201;-45
2023/12/21 06:03:44;;;;;;;12.83;2.60;;;15.40;72.70;16.40;99406.00;;;;5062745;28;20245;-45
2023/12/21 06:06:11;;;;;;;7.27;1.93;;;15.40;72.70;16.40;99405.00;;;;5066294;28;20223;-44
2023/12/21 06:08:37;;;;;;;10.70;2.17;;;15.40;72.60;16.40;99422.00;;;;5062880;28;20205;-44
2023/12/21 06:11:03;;;;;;;9.23;2.13;;;15.40;72.50;16.40;99412.00;;;;5062978;28;20178;-43
2023/12/21 06:13:28;;;;;;;8.03;2.13;;;15.40;72.60;16.40;99398.00;;;;5062897;28;20208;-43
2023/12/21 06:15:55;;;;;;;4.77;2.00;;;15.40;72.50;16.40;99396.00;;;;5059179;28;20192;-43
2023/12/21 06:18:20;;;;;;;5.83;1.90;;;15.40;72.50;16.40;99389.00;;;;5064363;28;20786;-46
2023/12/21 06:20:46;;;;;;;6.10;2.10;;;15.30;72.30;16.40;99385.00;;;;5061200;28;20249;-43
2023/12/21 06:23:12;;;;;;;5.47;2.07;;;15.30;72.30;16.40;99386.00;;;;5064345;28;20201;-43
2023/12/21 06:25:37;;;;;;;5.70;1.80;;;15.30;72.30;16.40;99392.00;;;;5062984;28;20166;-44
2023/12/21 06:28:03;;;;;;;5.03;1.97;;;15.40;73.50;16.30;99395.00;;;;5065638;28;20193;-45
2023/12/21 06:30:29;;;;;;;4.63;1.80;;;15.30;72.90;16.30;99402.00;;;;5063964;28;20178;-45
2023/12/21 06:32:55;;;;;;;6.60;2.00;;;15.30;73.10;16.30;99387.00;;;;5061587;28;20267;-45
2023/12/21 06:35:20;;;;;;;4.73;2.20;;;15.30;73.00;16.30;99382.00;;;;5062058;28;20746;-44
2023/12/21 06:37:46;;;;;;;3.43;1.80;;;15.30;73.10;16.30;99372.00;;;;5065195;28;20174;-45
2023/12/21 06:40:12;;;;;;;4.10;2.07;;;15.30;73.40;16.30;99369.00;;;;5065281;28;20639;-44
2023/12/21 06:42:38;;;;;;;4.03;1.83;;;15.30;73.40;16.30;99386.00;;;;5062702;28;20205;-44
2023/12/21 06:45:04;;;;;;;2.70;1.97;;;15.30;73.50;16.20;99372.00;;;;5059736;28;20632;-44
2023/12/21 06:47:30;;;;;;;4.30;1.77;;;15.30;73.50;16.20;99374.00;;;;5062506;28;20170;-44
2023/12/21 06:49:56;;;;;;;3.33;1.93;;;15.30;73.50;16.20;99377.00;;;;5066010;28;20263;-45
2023/12/21 06:52:21;;;;;;;2.07;1.70;;;15.30;73.40;16.20;99354.00;;;;5064893;28;20177;-49
2023/12/21 06:54:47;;;;;;;3.97;1.93;;;15.30;73.50;16.20;99340.00;;;;5065616;28;20219;-45
2023/12/21 06:57:15;;;;;;;3.07;1.80;;;15.20;73.40;16.20;99340.00;;;;5065460;28;20181;-44
2023/12/21 06:59:41;;;;;;;3.43;1.93;;;15.30;73.50;16.10;99341.00;;;;5064070;28;20190;-44
2023/12/21 07:02:07;;;;;;;3.23;1.80;;;15.20;73.40;16.10;99333.00;;;;5065725;28;20209;-45
2023/12/21 07:04:34;;;;;;;2.83;1.80;;;15.20;73.30;16.10;99325.00;;;;5059375;28;20262;-44
2023/12/21 07:07:00;;;;;;;4.37;1.83;;;15.20;73.40;16.10;99334.00;;;;5063962;28;20184;-45
2023/12/21 07:09:26;;;;;;;2.57;1.60;;;15.20;73.30;16.10;99364.00;;;;5059942;28;20201;-45
2023/12/21 07:11:51;;;;;;;3.60;1.63;;;15.20;73.40;16.10;99357.00;;;;5067171;28;20614;-46
2023/12/21 07:14:17;;;;;;;2.97;1.70;;;15.20;73.40;16.10;99343.00;;;;5059757;28;20717;-44
2023/12/21 07:16:43;;;;;;;2.40;1.70;;;15.20;73.30;16.10;99335.00;;;;5065046;28;20192;-44
2023/12/21 07:19:09;;;;;;;2.80;2.00;;;15.20;73.40;16.10;99334.00;;;;5061184;28;20710;-44
2023/12/21 07:21:34;;;;;;;3.50;1.70;;;15.20;73.30;16.10;99320.00;;;;5063881;28;20206;-44
2023/12/21 07:24:00;;;;;;;3.30;1.60;;;15.20;73.30;16.10;99320.00;;;;5065182;28;20182;-45
2023/12/21 07:26:26;;;;;;;3.47;1.80;;;15.20;73.10;16.10;99321.00;;;;5063688;28;20186;-44
2023/12/21 07:28:52;;;;;;;1.67;1.57;;;15.20;73.30;16.10;99307.00;;;;5064050;28;20220;-44
2023/12/21 07:31:18;;;;;;;2.50;1.63;;;15.20;73.50;16.10;99307.00;;;;5060280;28;20663;-44
2023/12/21 07:33:44;;;;;;;2.17;1.63;;;15.20;73.10;16.10;99305.00;;;;5059470;28;20556;-44
2023/12/21 07:36:10;;;;;;;3.80;1.60;;;15.10;72.80;16.10;99289.00;;;;5065462;28;20186;-44
2023/12/21 07:38:37;;;;;;;1.70;1.60;;;15.10;72.70;16.10;99273.00;;;;5063526;28;20282;-44
2023/12/21 07:41:03;;;;;;;3.73;1.83;;;15.20;72.90;16.10;99257.00;;;;5063220;28;20192;-44
2023/12/21 07:43:29;;;;;;;3.83;1.70;;;15.20;72.90;16.20;99257.00;;;;5064075;28;20319;-44
2023/12/21 07:45:56;;;;;;;2.77;1.83;;;15.30;72.90;16.20;99245.00;;;;5059397;28;20252;-44
2023/12/21 07:48:21;;;;;;;2.13;1.70;;;15.30;72.90;16.20;99246.00;;;;5063750;28;20217;-44
2023/12/21 07:50:47;;;;;;;3.17;1.63;;;15.40;73.00;16.30;99243.00;;;;5062713;28;20585;-44
2023/12/21 07:53:13;;;;;;;2.83;1.60;;;15.50;72.80;16.30;99227.00;;;;5064372;28;20182;-45
2023/12/21 07:55:38;;;;;;;2.83;1.73;;;15.60;72.70;16.40;99225.00;;;;5067277;28;20248;-45
2023/12/21 07:58:05;;;;;;;2.63;1.70;;;15.70;72.70;16.50;99216.00;;;;5068407;28;20205;-45
2023/12/21 08:00:32;;;;;;;2.37;1.60;;;15.90;72.60;16.60;99204.00;;;;5065142;28;20833;-45
2023/12/21 08:02:57;;;;;;;2.40;1.70;;;16.00;72.40;16.70;99195.00;;;;5065650;28;20233;-45
2023/12/21 08:05:23;;;;;;;1.93;1.53;;;16.10;72.30;16.80;99184.00;;;;5066977;28;20219;-44
2023/12/21 08:07:50;;;;;;;2.17;1.40;;;16.30;72.10;16.90;99184.00;;;;5068395;28;20208;-45
2023/12/21 08:10:16;;;;;;;1.77;1.50;;;16.40;71.90;17.00;99179.00;;;;5067652;28;20173;-45
2023/12/21 08:12:42;;;;;;;2.03;1.57;;;16.50;71.60;17.10;99182.00;;;;5066565;28;20242;-44
2023/12/21 08:15:11;;;;;;;2.80;1.57;;;16.70;71.50;17.20;99180.00;;;;5067259;28;20295;-44
2023/12/21 08:17:37;;;;;;;1.80;1.47;;;16.90;71.40;17.40;99177.00;;;;5068183;28;20189;-45
2023/12/21 08:20:06;;;;;;;1.93;1.50;;;16.90;71.10;17.50;99161.00;;;;5069421;28;20255;-45
2023/12/21 08:22:33;;;;;;;3.57;1.60;;;17.10;71.10;17.60;99160.00;;;;5067283;28;20284;-45
2023/12/21 08:24:58;;;;;;;1.73;1.40;;;17.20;71.00;17.70;99149.00;;;;5068250;28;20174;-45
2023/12/21 08:27:24;;;;;;;1.97;1.67;;;17.30;70.60;17.80;99135.00;;;;5066777;28;20272;-45
2023/12/21 08:29:51;;;;;;;2.17;1.50;;;17.40;70.40;17.90;99131.00;;;;5066372;28;20752;-45
2023/12/21 08:32:21;;;;;;;2.60;1.57;;;17.50;70.30;18.00;99120.00;;;;5050250;28;20617;-44
2023/12/21 08:34:47;;;;;;;2.43;1.37;;;17.50;70.10;18.10;99124.00;;;;5056120;28;20183;-44
2023/12/21 08:37:13;;;;;;;1.57;1.40;;;17.70;70.10;18.20;99129.00;;;;5067469;28;20246;-45
2023/12/21 08:39:39;;;;;;;2.30;1.60;;;17.70;70.00;18.30;99138.00;;;;5062725;28;20693;-45
2023/12/21 08:42:08;;;;;;;2.50;1.50;;;17.80;69.90;18.30;99117.00;;;;5066536;28;20208;-44
2023/12/21 08:44:37;;;;;;;2.07;1.47;;;17.90;69.80;18.40;99108.00;;;;5065974;28;20187;-45
2023/12/21 08:47:07;;;;;;;1.93;1.43;;;18.00;69.90;18.40;99123.00;;;;5067651;28;20180;-45
2023/12/21 08:49:32;;;;;;;1.43;1.30;;;18.10;69.70;18.60;99123.00;;;;5065447;28;20215;-44
2023/12/21 08:51:59;;;;;;;1.50;1.40;;;18.10;69.40;18.60;99114.00;;;;5061235;28;20726;-44
2023/12/21 08:54:25;;;;;;;1.50;1.40;;;18.20;69.40;18.70;99116.00;;;;5065336;28;20276;-45
2023/12/21 08:56:51;;;;;;;2.60;1.83;;;18.30;69.40;18.80;99112.00;;;;5055002;28;20182;-44
2023/12/21 08:59:17;;;;;;;1.83;1.57;;;18.40;69.40;18.80;99116.00;;;;5066360;28;20580;-44
2023/12/21 09:01:43;;;;;;;2.07;1.57;;;18.30;69.40;18.90;99093.00;;;;5059518;28;20201;-44
2023/12/21 09:04:09;;;;;;;2.83;1.60;;;18.40;69.50;19.00;99087.00;;;;5062815;28;20709;-44
2023/12/21 09:06:35;;;;;;;3.93;1.70;;;18.50;69.50;19.00;99090.00;;;;5065770;28;20175;-45
2023/12/21 09:09:04;;;;;;;4.63;1.43;;;18.50;69.30;19.10;99076.00;;;;5066686;28;20208;-44
2023/12/21 09:11:30;;;;;;;2.17;1.50;;;18.60;69.20;19.20;99079.00;;;;5065611;28;20211;-44
2023/12/21 09:13:56;;;;;;;2.13;1.67;;;18.60;69.30;19.20;98983.00;;;;5066527;28;20264;-44
2023/12/21 09:16:22;;;;;;;3.97;1.70;;;18.70;69.20;19.30;99069.00;;;;5064385;28;20178;-44
2023/12/21 09:18:48;;;;;;;10.17;1.80;;;18.70;69.20;19.30;99053.00;;;;5065990;28;20202;-44
2023/12/21 09:21:14;;;;;;;5.13;1.80;;;18.70;69.30;19.30;99067.00;;;;5066647;28;20310;-44
2023/12/21 09:23:41;;;;;;;1.87;1.67;;;18.60;69.40;19.30;99065.00;;;;5065305;28;20182;-44
2023/12/21 09:26:10;;;;;;;3.97;1.73;;;18.60;69.60;19.30;99057.00;;;;5067006;28;20185;-43
2023/12/21 09:28:37;;;;;;;1.90;1.70;;;18.60;69.70;19.30;99053.00;;;;5058628;28;20288;-44
2023/12/21 09:31:04;;;;;;;3.47;1.53;;;18.60;69.80;19.30;99052.00;;;;5061086;28;20534;-44
2023/12/21 09:33:33;;;;;;;4.87;1.63;;;18.60;69.90;19.30;99053.00;;;;5058779;28;20265;-43
2023/12/21 09:35:59;;;;;;;4.10;1.70;;;18.60;70.00;19.30;99030.00;;;;5059149;28;20189;-45
2023/12/21 09:38:25;;;;;;;2.83;1.60;;;18.50;69.90;19.30;99029.00;;;;5064997;28;20223;-43
2023/12/21 09:40:51;;;;;;;4.20;1.60;;;18.50;69.90;19.30;99015.00;;;;5065455;28;20170;-45
2023/12/21 09:43:21;;;;;;;1.83;1.40;;;18.50;70.10;19.30;99017.00;;;;5066245;28;20201;-44
2023/12/21 09:45:47;;;;;;;2.47;1.60;;;18.50;70.10;19.30;99013.00;;;;5063072;28;20185;-44
2023/12/21 09:48:14;;;;;;;3.17;1.50;;;18.50;70.10;19.20;99009.00;;;;5048385;28;20248;-43
2023/12/21 09:50:47;;;;;;;2.07;1.50;;;18.40;70.20;19.20;99012.00;;;;5064356;28;20202;-44
2023/12/21 09:53:13;;;;;;;3.10;1.40;;;18.40;70.30;19.20;99003.00;;;;5065535;28;20189;-44
2023/12/21 09:55:41;;;;;;;3.27;1.60;;;18.40;70.30;19.20;99002.00;;;;5047499;28;20269;-44
2023/12/21 09:58:08;;;;;;;2.23;1.37;;;18.40;70.30;19.20;99005.00;;;;5066803;28;20228;-44
2023/12/21 10:00:34;;;;;;;3.43;1.50;;;18.30;70.30;19.10;99008.00;;;;5045803;28;20243;-44
2023/12/21 10:03:00;;;;;;;2.97;1.50;;;18.30;70.30;19.10;98991.00;;;;5059970;28;20206;-44
2023/12/21 10:05:26;;;;;;;1.67;1.50;;;18.30;70.30;19.10;99004.00;;;;5065126;28;20701;-44
2023/12/21 10:07:51;;;;;;;1.90;1.67;;;18.20;70.30;19.10;99002.00;;;;5065166;28;20401;-44
2023/12/21 10:10:18;;;;;;;1.50;1.40;;;18.20;70.30;19.10;98986.00;;;;5058679;28;20223;-44
2023/12/21 10:12:44;;;;;;;2.10;1.40;;;18.20;70.30;19.10;98996.00;;;;5065902;28;20615;-44
2023/12/21 10:15:10;;;;;;;2.37;1.57;;;18.10;70.40;19.00;98983.00;;;;5054275;28;20219;-44
2023/12/21 10:17:37;;;;;;;1.47;1.37;;;18.10;70.50;19.00;98978.00;;;;5065031;28;20295;-44
2023/12/21 10:20:04;;;;;;;3.00;1.60;;;18.10;70.50;19.00;98975.00;;;;5066381;28;20529;-44
2023/12/21 10:22:30;;;;;;;2.20;1.40;;;18.10;70.50;19.00;98969.00;;;;5064768;28;20205;-44
2023/12/21 10:24:56;;;;;;;1.37;1.27;;;18.00;70.40;19.00;98953.00;;;;5067039;28;20203;-44
2023/12/21 10:27:22;;;;;;;2.33;1.30;;;18.00;70.50;18.90;98968.00;;;;5063127;28;20655;-44
2023/12/21 10:29:58;;;;;;;1.17;1.07;;;18.00;70.50;18.90;98955.00;;;;5065473;28;20571;-44
2023/12/21 10:32:24;;;;;;;2.57;1.40;;;18.00;70.50;18.90;98952.00;;;;5057539;28;20188;-44
2023/12/21 10:34:49;;;;;;;1.90;1.30;;;17.90;70.40;18.80;98962.00;;;;5060933;28;20188;-44
2023/12/21 10:37:16;;;;;;;1.50;1.27;;;17.90;70.40;18.80;98957.00;;;;5066031;28;20234;-44
2023/12/21 10:39:42;;;;;;;1.40;1.30;;;17.90;70.50;18.80;98940.00;;;;5064546;28;20690;-44
2023/12/21 10:42:07;;;;;;;1.30;1.20;;;17.90;70.50;18.80;98941.00;;;;5066280;28;20774;-44
2023/12/21 10:44:33;;;;;;;3.00;1.70;;;17.90;70.50;18.80;98940.00;;;;5046438;28;20288;-44
2023/12/21 10:47:01;;;;;;;1.27;1.17;;;17.80;70.40;18.70;98926.00;;;;5064863;28;20209;-45
2023/12/21 10:49:27;;;;;;;1.40;1.30;;;17.80;70.50;18.70;98931.00;;;;5046065;28;20299;-44